createdAt,value
2023-07-08T00:00:14.967Z,100010.91
2023-07-08T00:02:42.891Z,100009.05
2023-07-08T00:05:14.272Z,100005.63
2023-07-08T00:07:41.680Z,100007.40
2023-07-08T00:10:15.072Z,100008.80
2023-07-08T00:12:43.925Z,100010.05
2023-07-08T00:15:11.951Z,100011.70
2023-07-08T00:17:39.535Z,100010.49
2023-07-08T00:20:15.127Z,100010.13
2023-07-08T00:22:42.837Z,100007.57
2023-07-08T00:25:10.187Z,100008.34
2023-07-08T00:27:37.564Z,100006.30
2023-07-08T00:30:26.434Z,100005.73
2023-07-08T00:32:57.455Z,100003.69
2023-07-08T00:35:30.159Z,100000.58
2023-07-08T00:38:02.643Z,99999.77
2023-07-08T00:40:31.724Z,99995.91
2023-07-08T00:43:01.016Z,99994.91
2023-07-08T00:45:53.435Z,99995.95
2023-07-08T00:48:26.776Z,99994.10
2023-07-08T00:50:54.269Z,99990.45
2023-07-08T00:53:28.857Z,99989.73
2023-07-08T00:56:18.137Z,99987.93
2023-07-08T00:58:50.601Z,99986.14
2023-07-08T01:01:18.035Z,99990.20
2023-07-08T01:04:24.282Z,99989.73
2023-07-08T01:06:58.350Z,99987.61
2023-07-08T01:09:31.007Z,99984.39
2023-07-08T01:12:00.003Z,99987.55
2023-07-08T01:14:28.801Z,99987.51
2023-07-08T01:16:56.533Z,99986.64
2023-07-08T01:19:33.336Z,99982.02
2023-07-08T01:22:03.167Z,99978.40
2023-07-08T01:24:31.073Z,99979.64
2023-07-08T01:26:59.304Z,99978.08
2023-07-08T01:29:26.656Z,99973.43
2023-07-08T01:31:56.440Z,99976.19
2023-07-08T01:34:23.899Z,99975.05
2023-07-08T01:36:55.554Z,99973.30
2023-07-08T01:39:24.097Z,99974.09
2023-07-08T01:41:52.517Z,99973.98
2023-07-08T01:44:31.222Z,99977.02
2023-07-08T01:47:06.292Z,99979.64
2023-07-08T01:49:33.963Z,99979.41
2023-07-08T01:52:01.329Z,99980.22
2023-07-08T01:54:28.654Z,99981.77
2023-07-08T01:56:59.015Z,99982.20
2023-07-08T01:59:26.567Z,99981.16
2023-07-08T02:01:56.551Z,99976.34
2023-07-08T02:04:25.114Z,99976.14
2023-07-08T02:06:56.427Z,99976.87
2023-07-08T02:09:24.194Z,99974.02
2023-07-08T02:11:52.547Z,99972.18
2023-07-08T02:14:20.672Z,99969.59
2023-07-08T02:16:48.583Z,99968.73
2023-07-08T02:19:16.129Z,99973.92
2023-07-08T02:21:44.033Z,99976.23
2023-07-08T02:24:11.475Z,99979.25
2023-07-08T02:26:38.800Z,99982.50
2023-07-08T02:29:06.198Z,99983.20
2023-07-08T02:31:33.547Z,99982.86
2023-07-08T02:34:03.232Z,99985.41
2023-07-08T02:36:30.607Z,99986.79
2023-07-08T02:38:57.856Z,99990.94
2023-07-08T02:41:25.171Z,99989.40
2023-07-08T02:43:52.704Z,99988.20
2023-07-08T02:46:20.186Z,99986.76
2023-07-08T02:48:47.517Z,99985.85
2023-07-08T02:51:14.812Z,99986.98
2023-07-08T02:53:42.370Z,99986.69
2023-07-08T02:56:09.678Z,99989.23
2023-07-08T02:58:37.223Z,99992.05
2023-07-08T03:01:05.051Z,99991.61
2023-07-08T03:03:32.782Z,99986.22
2023-07-08T03:06:01.860Z,99988.80
2023-07-08T03:08:29.526Z,99988.13
2023-07-08T03:11:01.616Z,99984.58
2023-07-08T03:13:29.698Z,99981.27
2023-07-08T03:15:58.496Z,99983.41
2023-07-08T03:18:27.880Z,99982.90
2023-07-08T03:20:57.164Z,99981.39
2023-07-08T03:23:25.329Z,99982.88
2023-07-08T03:25:53.460Z,99981.40
2023-07-08T03:28:21.386Z,99981.27
2023-07-08T03:30:52.472Z,99984.77
2023-07-08T03:33:19.901Z,99982.30
2023-07-08T03:35:47.361Z,99980.28
2023-07-08T03:38:14.779Z,99976.94
2023-07-08T03:40:42.376Z,99978.14
2023-07-08T03:43:09.666Z,99976.91
2023-07-08T03:45:37.692Z,99977.44
2023-07-08T03:48:05.589Z,99971.61
2023-07-08T03:50:33.261Z,99973.42
2023-07-08T03:53:00.745Z,99970.50
2023-07-08T03:55:30.482Z,99966.12
2023-07-08T03:57:58.456Z,99961.73
2023-07-08T04:00:26.750Z,99961.65
2023-07-08T04:02:54.265Z,99953.37
2023-07-08T04:05:23.716Z,99954.01
2023-07-08T04:07:51.691Z,99954.27
2023-07-08T04:10:19.221Z,99953.50
2023-07-08T04:12:46.562Z,99947.86
2023-07-08T04:15:14.605Z,99944.11
2023-07-08T04:17:49.540Z,99943.56
2023-07-08T04:20:19.877Z,99940.57
2023-07-08T04:22:47.426Z,99939.29
2023-07-08T04:25:15.597Z,99937.23
2023-07-08T04:27:43.084Z,99931.87
2023-07-08T04:30:19.732Z,99933.34
2023-07-08T04:32:47.119Z,99928.45
2023-07-08T04:35:14.551Z,99930.89
2023-07-08T04:37:42.002Z,99930.48
2023-07-08T04:40:16.066Z,99931.34
2023-07-08T04:42:43.418Z,99929.59
2023-07-08T04:45:10.845Z,99928.14
2023-07-08T04:47:38.174Z,99925.96
2023-07-08T04:50:05.939Z,99921.23
2023-07-08T04:52:33.247Z,99922.04
2023-07-08T04:55:00.617Z,99923.79
2023-07-08T04:57:27.909Z,99925.30
2023-07-08T04:59:55.209Z,99919.49
2023-07-08T05:02:22.550Z,99918.14
2023-07-08T05:04:49.878Z,99917.98
2023-07-08T05:07:17.419Z,99918.42
2023-07-08T05:09:44.749Z,99918.89
2023-07-08T05:12:12.039Z,99910.30
2023-07-08T05:14:39.674Z,99908.79
2023-07-08T05:17:07.339Z,99905.54
2023-07-08T05:19:34.808Z,99905.88
2023-07-08T05:22:02.590Z,99905.12
2023-07-08T05:24:30.020Z,99902.13
2023-07-08T05:26:57.410Z,99896.55
2023-07-08T05:29:25.151Z,99889.27
2023-07-08T05:31:52.535Z,99885.70
2023-07-08T05:34:19.851Z,99882.35
2023-07-08T05:36:47.219Z,99884.95
2023-07-08T05:39:14.587Z,99888.86
2023-07-08T05:41:41.860Z,99890.84
2023-07-08T05:44:09.224Z,99885.89
2023-07-08T05:46:36.723Z,99897.02
2023-07-08T05:49:04.108Z,99903.75
2023-07-08T05:51:31.499Z,99913.33
2023-07-08T05:53:58.906Z,99912.86
2023-07-08T05:56:26.194Z,99916.11
2023-07-08T05:58:53.518Z,99917.08
2023-07-08T06:01:20.863Z,99917.98
2023-07-08T06:03:48.540Z,99923.20
2023-07-08T06:06:16.033Z,99922.19
2023-07-08T06:08:43.643Z,99922.25
2023-07-08T06:11:10.914Z,99921.89
2023-07-08T06:13:38.320Z,99925.09
2023-07-08T06:16:06.409Z,99931.58
2023-07-08T06:18:33.808Z,99930.75
2023-07-08T06:21:01.582Z,99929.54
2023-07-08T06:23:29.334Z,99928.02
2023-07-08T06:25:57.224Z,99927.36
2023-07-08T06:28:24.694Z,99930.49
2023-07-08T06:30:52.003Z,99933.15
2023-07-08T06:33:19.302Z,99935.91
2023-07-08T06:35:46.630Z,99933.23
2023-07-08T06:38:13.987Z,99938.55
2023-07-08T06:40:41.446Z,99941.52
2023-07-08T06:43:08.783Z,99945.61
2023-07-08T06:45:45.183Z,99948.50
2023-07-08T06:48:12.587Z,99954.07
2023-07-08T06:50:39.913Z,99962.02
2023-07-08T06:53:08.280Z,99962.67
2023-07-08T06:55:35.577Z,99965.23
2023-07-08T06:58:02.853Z,99963.09
2023-07-08T07:00:30.162Z,99965.05
2023-07-08T07:02:57.458Z,99962.39
2023-07-08T07:05:25.133Z,99959.33
2023-07-08T07:07:53.828Z,99961.25
2023-07-08T07:10:21.254Z,99960.72
2023-07-08T07:12:48.564Z,99960.59
2023-07-08T07:15:16.461Z,99960.31
2023-07-08T07:17:43.951Z,99961.48
2023-07-08T07:20:11.714Z,99959.92
2023-07-08T07:22:39.190Z,99959.85
2023-07-08T07:25:06.852Z,99959.44
2023-07-08T07:27:34.379Z,99960.75
2023-07-08T07:30:01.904Z,99963.55
2023-07-08T07:32:30.647Z,99962.85
2023-07-08T07:34:59.532Z,99965.42
2023-07-08T07:37:26.879Z,99965.23
2023-07-08T07:39:54.327Z,99970.77
2023-07-08T07:42:21.737Z,99969.09
2023-07-08T07:44:49.267Z,99968.45
2023-07-08T07:47:16.893Z,99966.87
2023-07-08T07:49:44.403Z,99968.70
2023-07-08T07:52:12.198Z,99975.68
2023-07-08T07:54:40.141Z,99976.95
2023-07-08T07:57:07.941Z,99980.41
2023-07-08T07:59:35.358Z,99984.13
2023-07-08T08:02:02.842Z,99987.83
2023-07-08T08:04:30.223Z,99988.76
2023-07-08T08:06:57.605Z,99987.16
2023-07-08T08:09:25.053Z,99985.32
2023-07-08T08:11:53.149Z,99982.70
2023-07-08T08:14:20.493Z,99984.48
2023-07-08T08:16:48.277Z,99983.75
2023-07-08T08:19:15.803Z,99981.37
2023-07-08T08:21:43.606Z,99986.50
2023-07-08T08:24:11.322Z,99987.39
2023-07-08T08:26:38.667Z,99984.15
2023-07-08T08:29:05.989Z,99983.78
2023-07-08T08:31:33.464Z,99982.63
2023-07-08T08:34:00.802Z,99991.48
2023-07-08T08:36:28.181Z,99994.22
2023-07-08T08:38:55.533Z,99995.99
2023-07-08T08:41:31.246Z,99999.80
2023-07-08T08:43:58.724Z,100003.73
2023-07-08T08:46:48.156Z,100008.57
2023-07-08T08:49:21.805Z,100014.63
2023-07-08T08:51:49.669Z,100021.30
2023-07-08T08:54:16.989Z,100026.35
2023-07-08T08:56:52.957Z,100032.09
2023-07-08T08:59:28.616Z,100035.73
2023-07-08T09:01:56.668Z,100043.73
2023-07-08T09:04:31.324Z,100046.86
2023-07-08T09:07:09.348Z,100047.35
2023-07-08T09:09:47.011Z,100046.11
2023-07-08T09:12:19.339Z,100050.27
2023-07-08T09:14:46.949Z,100050.67
2023-07-08T09:17:37.852Z,100049.66
2023-07-08T09:20:18.121Z,100052.63
2023-07-08T09:23:04.323Z,100052.42
2023-07-08T09:25:46.926Z,100050.96
2023-07-08T09:28:16.540Z,100052.32
2023-07-08T09:30:50.186Z,100051.61
2023-07-08T09:33:17.686Z,100051.95
2023-07-08T09:35:49.998Z,100051.98
2023-07-08T09:38:19.017Z,100056.33
2023-07-08T09:40:52.272Z,100058.11
2023-07-08T09:43:39.497Z,100058.83
2023-07-08T09:46:07.046Z,100058.80
2023-07-08T09:48:37.593Z,100060.38
2023-07-08T09:51:05.137Z,100054.35
2023-07-08T09:53:32.421Z,100059.60
2023-07-08T09:56:00.624Z,100056.89
2023-07-08T09:58:33.528Z,100056.32
2023-07-08T10:01:03.182Z,100051.67
2023-07-08T10:03:33.083Z,100050.96
2023-07-08T10:06:04.572Z,100050.51
2023-07-08T10:08:41.258Z,100048.71
2023-07-08T10:11:34.757Z,100047.14
2023-07-08T10:14:17.805Z,100048.51
2023-07-08T10:16:46.330Z,100053.63
2023-07-08T10:19:15.234Z,100051.50
2023-07-08T10:21:45.947Z,100049.49
2023-07-08T10:24:35.338Z,100048.64
2023-07-08T10:27:28.167Z,100054.92
2023-07-08T10:29:59.599Z,100054.59
2023-07-08T10:32:34.538Z,100058.05
2023-07-08T10:35:15.986Z,100066.39
2023-07-08T10:37:46.774Z,100068.63
2023-07-08T10:40:35.199Z,100062.25
2023-07-08T10:43:30.960Z,100065.69
2023-07-08T10:45:58.403Z,100067.08
2023-07-08T10:48:31.967Z,100068.48
2023-07-08T10:51:34.855Z,100070.25
2023-07-08T10:54:27.056Z,100070.72
2023-07-08T10:57:03.557Z,100066.81
2023-07-08T11:00:03.647Z,100067.37
2023-07-08T11:02:55.866Z,100071.05
2023-07-08T11:05:23.207Z,100073.91
2023-07-08T11:08:01.179Z,100074.39
2023-07-08T11:10:31.710Z,100072.39
2023-07-08T11:13:26.629Z,100067.35
2023-07-08T11:16:08.326Z,100064.84
2023-07-08T11:18:48.019Z,100064.16
2023-07-08T11:21:37.164Z,100058.51
2023-07-08T11:24:23.867Z,100056.88
2023-07-08T11:26:55.220Z,100050.95
2023-07-08T11:29:38.483Z,100049.69
2023-07-08T11:32:06.620Z,100049.21
2023-07-08T11:34:34.410Z,100046.17
2023-07-08T11:37:02.006Z,100044.51
2023-07-08T11:39:31.013Z,100040.66
2023-07-08T11:42:24.748Z,100039.63
2023-07-08T11:44:54.562Z,100039.42
2023-07-08T11:47:36.719Z,100040.50
2023-07-08T11:50:04.334Z,100036.69
2023-07-08T11:52:31.978Z,100035.55
2023-07-08T11:55:31.006Z,100036.02
2023-07-08T11:58:00.789Z,100030.27
2023-07-08T12:00:33.396Z,100028.45
2023-07-08T12:03:17.635Z,100026.23
2023-07-08T12:05:45.072Z,100023.19
2023-07-08T12:08:14.330Z,100023.59
2023-07-08T12:10:48.453Z,100017.46
2023-07-08T12:13:19.288Z,100019.90
2023-07-08T12:15:46.998Z,100018.98
2023-07-08T12:18:22.464Z,100018.64
2023-07-08T12:20:54.612Z,100018.34
2023-07-08T12:23:23.584Z,100016.86
2023-07-08T12:25:51.571Z,100015.60
2023-07-08T12:28:19.417Z,100012.81
2023-07-08T12:30:47.296Z,100010.05
2023-07-08T12:33:27.108Z,100012.91
2023-07-08T12:35:54.878Z,100014.80
2023-07-08T12:38:34.018Z,100013.63
2023-07-08T12:41:03.374Z,100017.04
2023-07-08T12:43:31.131Z,100017.02
2023-07-08T12:45:59.679Z,100014.16
2023-07-08T12:48:26.987Z,100013.80
2023-07-08T12:50:54.321Z,100017.11
2023-07-08T12:53:21.609Z,100020.73
2023-07-08T12:55:49.331Z,100021.31
2023-07-08T12:58:26.682Z,100022.29
2023-07-08T13:00:54.201Z,100025.33
2023-07-08T13:03:24.143Z,100025.33
2023-07-08T13:05:52.204Z,100030.14
2023-07-08T13:08:21.912Z,100032.39
2023-07-08T13:10:57.358Z,100038.78
2023-07-08T13:13:27.456Z,100041.17
2023-07-08T13:15:55.163Z,100043.30
2023-07-08T13:18:33.852Z,100043.36
2023-07-08T13:21:01.751Z,100047.90
2023-07-08T13:23:29.448Z,100052.77
2023-07-08T13:25:57.234Z,100050.81
2023-07-08T13:28:29.082Z,100052.70
2023-07-08T13:30:58.569Z,100058.83
2023-07-08T13:33:33.186Z,100062.70
2023-07-08T13:36:03.246Z,100066.00
2023-07-08T13:38:35.420Z,100069.28
2023-07-08T13:41:04.271Z,100067.48
2023-07-08T13:43:33.364Z,100064.77
2023-07-08T13:46:00.943Z,100065.23
2023-07-08T13:48:43.807Z,100061.14
2023-07-08T13:51:19.162Z,100055.86
2023-07-08T13:53:55.714Z,100055.02
2023-07-08T13:56:26.404Z,100052.30
2023-07-08T13:59:01.055Z,100055.80
2023-07-08T14:01:28.649Z,100052.02
2023-07-08T14:03:56.452Z,100048.83
2023-07-08T14:06:26.117Z,100047.38
2023-07-08T14:08:56.393Z,100040.02
2023-07-08T14:11:24.112Z,100042.58
2023-07-08T14:13:51.540Z,100038.79
2023-07-08T14:16:31.127Z,100039.15
2023-07-08T14:18:59.239Z,100035.21
2023-07-08T14:21:26.491Z,100032.08
2023-07-08T14:23:54.997Z,100028.71
2023-07-08T14:26:22.439Z,100026.42
2023-07-08T14:28:50.410Z,100023.31
2023-07-08T14:31:21.640Z,100022.08
2023-07-08T14:33:49.063Z,100021.74
2023-07-08T14:36:16.355Z,100021.61
2023-07-08T14:38:44.114Z,100017.61
2023-07-08T14:41:11.519Z,100016.28
2023-07-08T14:43:40.544Z,100023.98
2023-07-08T14:46:10.049Z,100025.73
2023-07-08T14:48:37.522Z,100030.71
2023-07-08T14:51:04.966Z,100028.47
2023-07-08T14:53:33.255Z,100028.63
2023-07-08T14:56:01.078Z,100025.85
2023-07-08T14:58:32.913Z,100023.33
2023-07-08T15:01:01.408Z,100022.98
2023-07-08T15:03:29.204Z,100021.57
2023-07-08T15:05:56.832Z,100025.32
2023-07-08T15:08:24.404Z,100024.77
2023-07-08T15:10:52.567Z,100026.50
2023-07-08T15:13:22.278Z,100028.05
2023-07-08T15:15:50.132Z,100029.14
2023-07-08T15:18:18.562Z,100026.31
2023-07-08T15:20:46.238Z,100027.88
2023-07-08T15:23:13.746Z,100029.21
2023-07-08T15:25:43.065Z,100027.97
2023-07-08T15:28:19.570Z,100022.96
2023-07-08T15:30:47.090Z,100023.69
2023-07-08T15:33:16.318Z,100024.86
2023-07-08T15:35:44.884Z,100028.09
2023-07-08T15:38:12.405Z,100025.84
2023-07-08T15:40:39.768Z,100022.35
2023-07-08T15:43:07.137Z,100020.20
2023-07-08T15:45:36.199Z,100017.74
2023-07-08T15:48:03.918Z,100012.30
2023-07-08T15:50:31.392Z,100011.13
2023-07-08T15:52:58.664Z,100011.38
2023-07-08T15:55:31.352Z,100009.48
2023-07-08T15:58:03.252Z,100012.02
2023-07-08T16:00:32.082Z,100010.62
2023-07-08T16:03:02.085Z,100007.93
2023-07-08T16:05:29.812Z,100008.86
2023-07-08T16:07:57.263Z,100006.05
2023-07-08T16:10:25.937Z,100003.73
2023-07-08T16:12:54.384Z,100002.05
2023-07-08T16:15:30.064Z,100002.92
2023-07-08T16:17:58.196Z,100002.67
2023-07-08T16:20:27.295Z,100003.56
2023-07-08T16:22:54.609Z,100006.78
2023-07-08T16:25:28.813Z,100011.08
2023-07-08T16:27:56.383Z,100005.84
2023-07-08T16:30:23.792Z,100006.69
2023-07-08T16:32:51.158Z,100007.51
2023-07-08T16:35:19.743Z,100003.98
2023-07-08T16:37:48.035Z,100005.38
2023-07-08T16:40:17.697Z,100002.52
2023-07-08T16:42:45.895Z,100001.89
2023-07-08T16:45:14.644Z,100002.35
2023-07-08T16:47:42.153Z,100005.38
2023-07-08T16:50:10.127Z,100005.54
2023-07-08T16:52:38.088Z,100003.96
2023-07-08T16:55:16.718Z,100001.79
2023-07-08T16:57:44.312Z,100001.27
2023-07-08T17:00:17.672Z,99996.90
2023-07-08T17:02:45.495Z,99995.32
2023-07-08T17:05:36.417Z,99994.08
2023-07-08T17:08:04.224Z,99992.89
2023-07-08T17:10:31.706Z,99991.05
2023-07-08T17:12:59.091Z,99989.92
2023-07-08T17:15:29.274Z,99987.98
2023-07-08T17:17:58.685Z,99984.38
2023-07-08T17:20:28.009Z,99990.77
2023-07-08T17:22:55.369Z,99992.34
2023-07-08T17:25:24.976Z,99991.23
2023-07-08T17:27:54.601Z,99989.27
2023-07-08T17:30:22.429Z,99983.60
2023-07-08T17:32:51.183Z,99989.59
2023-07-08T17:35:19.179Z,99985.14
2023-07-08T17:37:46.589Z,99985.09
2023-07-08T17:40:25.330Z,99986.80
2023-07-08T17:42:53.911Z,99992.16
2023-07-08T17:45:23.681Z,99989.85
2023-07-08T17:47:51.196Z,99990.73
2023-07-08T17:50:23.345Z,99994.67
2023-07-08T17:52:51.219Z,99994.45
2023-07-08T17:55:19.020Z,99994.64
2023-07-08T17:57:48.741Z,99997.27
2023-07-08T18:00:22.767Z,100001.41
2023-07-08T18:02:50.337Z,100002.20
2023-07-08T18:05:22.501Z,100008.41
2023-07-08T18:07:50.358Z,100008.80
2023-07-08T18:10:17.987Z,100006.69
2023-07-08T18:12:45.568Z,100006.08
2023-07-08T18:15:16.387Z,100009.73
2023-07-08T18:17:43.952Z,100005.55
2023-07-08T18:20:11.898Z,100007.70
2023-07-08T18:22:40.169Z,100010.41
2023-07-08T18:25:25.746Z,100012.45
2023-07-08T18:27:53.129Z,100013.23
2023-07-08T18:30:21.133Z,100009.61
2023-07-08T18:32:49.870Z,100008.02
2023-07-08T18:35:22.475Z,100009.46
2023-07-08T18:37:51.411Z,100014.52
2023-07-08T18:40:30.096Z,100015.52
2023-07-08T18:43:06.912Z,100014.73
2023-07-08T18:45:34.675Z,100018.36
2023-07-08T18:48:02.121Z,100013.78
2023-07-08T18:50:29.440Z,100013.77
2023-07-08T18:52:56.922Z,100009.56
2023-07-08T18:55:25.152Z,100005.31
2023-07-08T18:57:55.683Z,100003.90
2023-07-08T19:00:23.006Z,100002.70
2023-07-08T19:02:54.749Z,100003.14
2023-07-08T19:05:22.218Z,100009.39
2023-07-08T19:07:49.998Z,100011.45
2023-07-08T19:10:18.134Z,100012.52
2023-07-08T19:12:49.237Z,100013.07
2023-07-08T19:15:22.083Z,100015.41
2023-07-08T19:17:50.171Z,100017.98
2023-07-08T19:20:17.860Z,100015.00
2023-07-08T19:22:48.689Z,100016.59
2023-07-08T19:25:17.643Z,100018.79
2023-07-08T19:27:45.086Z,100020.13
2023-07-08T19:30:13.288Z,100022.67
2023-07-08T19:32:42.231Z,100020.67
2023-07-08T19:35:15.966Z,100014.22
2023-07-08T19:37:43.571Z,100015.07
2023-07-08T19:40:13.681Z,100017.76
2023-07-08T19:42:41.361Z,100021.98
2023-07-08T19:45:28.521Z,100022.19
2023-07-08T19:47:57.124Z,100023.15
2023-07-08T19:50:26.201Z,100018.08
2023-07-08T19:52:53.487Z,100017.94
2023-07-08T19:55:20.820Z,100017.91
2023-07-08T19:57:52.969Z,100022.91
2023-07-08T20:00:23.055Z,100022.45
2023-07-08T20:02:51.466Z,100027.71
2023-07-08T20:05:19.990Z,100031.82
2023-07-08T20:07:47.323Z,100031.66
2023-07-08T20:10:16.779Z,100031.98
2023-07-08T20:12:44.337Z,100034.08
2023-07-08T20:15:13.145Z,100040.05
2023-07-08T20:17:40.850Z,100042.86
2023-07-08T20:20:22.848Z,100044.73
2023-07-08T20:22:51.571Z,100045.67
2023-07-08T20:25:19.272Z,100049.64
2023-07-08T20:27:47.297Z,100050.22
2023-07-08T20:30:23.152Z,100054.98
2023-07-08T20:32:50.810Z,100055.35
2023-07-08T20:35:20.061Z,100052.84
2023-07-08T20:37:47.681Z,100050.33
2023-07-08T20:40:25.474Z,100050.77
2023-07-08T20:42:55.664Z,100049.64
2023-07-08T20:45:31.243Z,100045.70
2023-07-08T20:47:59.450Z,100048.89
2023-07-08T20:50:27.711Z,100052.34
2023-07-08T20:52:55.493Z,100052.49
2023-07-08T20:55:23.071Z,100056.83
2023-07-08T20:57:50.642Z,100062.17
2023-07-08T21:00:25.844Z,100056.76
2023-07-08T21:02:53.817Z,100054.16
2023-07-08T21:05:21.368Z,100054.97
2023-07-08T21:07:48.802Z,100056.40
2023-07-08T21:10:20.346Z,100057.69
2023-07-08T21:12:47.611Z,100057.19
2023-07-08T21:15:15.700Z,100048.89
2023-07-08T21:17:43.863Z,100043.31
2023-07-08T21:20:21.336Z,100040.17
2023-07-08T21:22:48.896Z,100037.07
2023-07-08T21:25:17.095Z,100037.96
2023-07-08T21:27:45.134Z,100037.29
2023-07-08T21:30:25.606Z,100035.44
2023-07-08T21:32:54.086Z,100029.60
2023-07-08T21:35:25.197Z,100027.64
2023-07-08T21:37:56.649Z,100023.60
2023-07-08T21:40:48.622Z,100020.76
2023-07-08T21:43:17.680Z,100020.05
2023-07-08T21:45:45.547Z,100015.24
2023-07-08T21:48:14.269Z,100008.35
2023-07-08T21:50:55.905Z,100002.38
2023-07-08T21:53:29.083Z,99994.01
2023-07-08T21:55:56.818Z,99989.58
2023-07-08T21:58:24.569Z,99984.35
2023-07-08T22:00:52.264Z,99984.27
2023-07-08T22:03:30.789Z,99989.55
2023-07-08T22:06:01.719Z,99992.67
2023-07-08T22:08:29.956Z,99993.95
2023-07-08T22:11:01.426Z,99995.50
2023-07-08T22:13:40.964Z,99993.79
2023-07-08T22:16:12.284Z,99993.05
2023-07-08T22:18:42.769Z,99988.28
2023-07-08T22:21:17.105Z,99980.86
2023-07-08T22:23:44.531Z,99978.52
2023-07-08T22:26:11.976Z,99977.92
2023-07-08T22:28:39.800Z,99978.98
2023-07-08T22:31:34.278Z,99977.63
2023-07-08T22:34:03.289Z,99975.40
2023-07-08T22:36:30.770Z,99969.95
2023-07-08T22:39:06.466Z,99969.80
2023-07-08T22:41:38.361Z,99971.84
2023-07-08T22:44:05.638Z,99970.77
2023-07-08T22:46:33.092Z,99969.45
2023-07-08T22:49:01.339Z,99968.69
2023-07-08T22:51:29.280Z,99970.23
2023-07-08T22:53:57.321Z,99968.17
2023-07-08T22:56:24.589Z,99969.36
2023-07-08T22:58:51.897Z,99969.10
2023-07-08T23:01:19.269Z,99967.37
2023-07-08T23:03:46.562Z,99970.92
2023-07-08T23:06:16.729Z,99974.36
2023-07-08T23:08:43.978Z,99974.48
2023-07-08T23:11:13.550Z,99976.98
2023-07-08T23:13:42.728Z,99978.56
2023-07-08T23:16:18.628Z,99979.69
2023-07-08T23:18:48.100Z,99980.02
2023-07-08T23:21:16.508Z,99982.25
2023-07-08T23:23:43.850Z,99982.02
2023-07-08T23:26:21.799Z,99982.67
2023-07-08T23:28:58.249Z,99983.98
2023-07-08T23:31:26.405Z,99986.45
2023-07-08T23:33:53.881Z,99988.95
2023-07-08T23:36:29.185Z,99990.26
2023-07-08T23:38:56.504Z,99994.79
2023-07-08T23:41:24.061Z,99994.94
2023-07-08T23:43:51.287Z,99996.95
2023-07-08T23:46:26.983Z,99991.98
2023-07-08T23:48:54.500Z,99993.33
2023-07-08T23:51:22.910Z,99992.02
2023-07-08T23:53:50.275Z,99991.15
2023-07-08T23:56:18.435Z,99992.84
2023-07-08T23:58:45.844Z,99991.27
